Penngrove, California
Current Conditions -  °F | °C
As of 11:10 AM on Thursday 30 Oct 2014 (Local Time) from KO69 Reporting Station
Clear Clear  
Wind Chill: 72°   Ceiling: Unl
Heat Index: 72°   Visibility: 10mi
Dew Point: 54°   Wind: 9mph
Humidity: 53%   Direction: 160°SSE
Pressure: 29.95"   Gusts: NA
Location:  38.3°N, 122.67°W
Report Text: KO69 301810Z AUTO 16008KT 10SM CLR 22/12 A2995 RMK AO1
Loading
Personal Weather Stations






























Interactive Weather Map New forecast layout! Learn more

10-Day Weather Forecast

Advertisements
Track Severe Weather on mobile